createdAt,value
2017-11-25T00:00:39.308Z,16.87
2017-11-25T00:03:08.297Z,16.33
2017-11-25T00:05:37.434Z,15.17
2017-11-25T00:08:06.382Z,18.83
2017-11-25T00:10:35.372Z,20.63
2017-11-25T00:13:05.129Z,15.07
2017-11-25T00:15:36.006Z,15.17
2017-11-25T00:18:06.350Z,15.70
2017-11-25T00:20:35.392Z,16.70
2017-11-25T00:23:04.411Z,17.77
2017-11-25T00:25:33.853Z,17.70
2017-11-25T00:28:03.270Z,11.97
2017-11-25T00:30:32.271Z,14.83
2017-11-25T00:33:01.246Z,15.77
2017-11-25T00:35:30.251Z,15.33
2017-11-25T00:38:00.008Z,13.60
2017-11-25T00:40:29.807Z,14.20
2017-11-25T00:42:58.871Z,13.10
2017-11-25T00:45:27.830Z,17.20
2017-11-25T00:47:56.839Z,13.00
2017-11-25T00:50:25.884Z,18.10
2017-11-25T00:52:54.947Z,15.33
2017-11-25T00:55:23.900Z,15.87
2017-11-25T00:57:53.182Z,17.73
2017-11-25T01:00:22.193Z,15.17
2017-11-25T01:02:51.301Z,18.10
2017-11-25T01:05:20.680Z,17.13
2017-11-25T01:07:50.111Z,18.63
2017-11-25T01:10:19.491Z,13.00
2017-11-25T01:12:48.463Z,15.50
2017-11-25T01:15:18.548Z,13.73
2017-11-25T01:17:47.548Z,13.13
2017-11-25T01:20:16.543Z,13.00
2017-11-25T01:22:46.313Z,12.00
2017-11-25T01:25:17.340Z,12.60
2017-11-25T01:27:46.663Z,13.20
2017-11-25T01:30:16.073Z,16.20
2017-11-25T01:32:45.051Z,16.93
2017-11-25T01:35:15.094Z,15.10
2017-11-25T01:37:55.172Z,17.83
2017-11-25T01:40:36.517Z,17.17
2017-11-25T01:43:06.354Z,15.20
2017-11-25T01:45:35.754Z,26.17
2017-11-25T01:48:04.752Z,23.73
2017-11-25T01:50:33.868Z,21.90
2017-11-25T01:53:02.858Z,18.67
2017-11-25T01:55:32.456Z,16.37
2017-11-25T01:58:01.745Z,30.07
2017-11-25T02:00:31.435Z,21.00
2017-11-25T02:03:01.115Z,29.50
2017-11-25T02:05:31.066Z,30.77
2017-11-25T02:08:00.480Z,24.83
2017-11-25T02:10:29.447Z,23.57
2017-11-25T02:12:59.240Z,22.93
2017-11-25T02:15:28.604Z,29.47
2017-11-25T02:17:57.560Z,19.50
2017-11-25T02:20:26.570Z,35.13
2017-11-25T02:22:56.405Z,51.83
2017-11-25T02:25:25.397Z,33.27
2017-11-25T02:27:54.413Z,31.63
2017-11-25T02:30:23.397Z,40.13
2017-11-25T02:32:52.427Z,19.93
2017-11-25T02:35:22.163Z,23.47
2017-11-25T02:37:51.559Z,16.70
2017-11-25T02:40:20.553Z,18.43
2017-11-25T02:42:49.522Z,15.73
2017-11-25T02:45:18.993Z,16.10
2017-11-25T02:47:47.961Z,14.77
2017-11-25T02:50:17.625Z,20.43
2017-11-25T02:52:47.410Z,21.73
2017-11-25T02:55:16.452Z,17.10
2017-11-25T02:57:45.422Z,47.90
2017-11-25T03:00:14.441Z,25.33
2017-11-25T03:02:43.812Z,17.47
2017-11-25T03:05:13.216Z,18.37
2017-11-25T03:07:43.251Z,19.10
2017-11-25T03:10:12.720Z,18.80
2017-11-25T03:12:41.689Z,17.90
2017-11-25T03:15:10.692Z,18.53
2017-11-25T03:17:39.677Z,16.10
2017-11-25T03:20:09.132Z,23.63
2017-11-25T03:22:38.884Z,35.27
2017-11-25T03:25:07.860Z,34.13
2017-11-25T03:27:37.267Z,19.50
2017-11-25T03:30:07.661Z,16.87
2017-11-25T03:32:36.840Z,17.07
2017-11-25T03:35:05.842Z,22.30
2017-11-25T03:37:34.933Z,16.47
2017-11-25T03:40:04.205Z,21.90
2017-11-25T03:42:33.184Z,19.23
2017-11-25T03:45:02.189Z,44.73
2017-11-25T03:47:31.226Z,27.63
2017-11-25T03:50:01.921Z,40.13
2017-11-25T03:52:30.942Z,18.50
2017-11-25T03:55:00.273Z,13.77
2017-11-25T03:57:29.291Z,21.80
2017-11-25T03:59:58.306Z,17.00
2017-11-25T04:02:27.305Z,27.87
2017-11-25T04:04:57.361Z,19.50
2017-11-25T04:07:26.678Z,19.70
2017-11-25T04:09:55.964Z,34.50
2017-11-25T04:12:24.970Z,41.60
2017-11-25T04:14:53.986Z,34.10
2017-11-25T04:17:22.977Z,35.77
2017-11-25T04:19:51.966Z,29.03
2017-11-25T04:22:20.958Z,30.97
2017-11-25T04:24:50.251Z,35.63
2017-11-25T04:27:19.932Z,26.33
2017-11-25T04:29:49.678Z,44.93
2017-11-25T04:32:19.413Z,21.27
2017-11-25T04:34:48.742Z,55.50
2017-11-25T04:37:17.719Z,52.00
2017-11-25T04:39:47.105Z,27.03
2017-11-25T04:42:16.089Z,25.20
2017-11-25T04:44:46.161Z,17.20
2017-11-25T04:47:15.155Z,24.47
2017-11-25T04:49:44.571Z,34.23
2017-11-25T04:52:13.964Z,21.87
2017-11-25T04:54:44.964Z,18.53
2017-11-25T04:57:15.521Z,19.73
2017-11-25T04:59:44.542Z,33.43
2017-11-25T05:02:13.697Z,19.90
2017-11-25T05:04:43.343Z,22.30
2017-11-25T05:07:13.285Z,15.27
2017-11-25T05:09:42.267Z,24.23
2017-11-25T05:12:12.033Z,14.00
2017-11-25T05:14:41.913Z,16.23
2017-11-25T05:17:11.709Z,21.53
2017-11-25T05:19:41.090Z,25.47
2017-11-25T05:22:10.953Z,15.93
2017-11-25T05:24:39.924Z,21.00
2017-11-25T05:27:09.717Z,12.67
2017-11-25T05:29:39.039Z,18.20
2017-11-25T05:32:08.048Z,26.03
2017-11-25T05:34:37.454Z,14.87
2017-11-25T05:37:07.202Z,14.27
2017-11-25T05:39:36.199Z,25.30
2017-11-25T05:42:06.541Z,43.30
2017-11-25T05:44:35.915Z,17.23
2017-11-25T05:47:05.699Z,17.97
2017-11-25T05:49:34.664Z,20.97
2017-11-25T05:52:03.653Z,37.23
2017-11-25T05:54:32.653Z,10.00
2017-11-25T05:57:02.112Z,10.97
2017-11-25T05:59:31.834Z,11.23
2017-11-25T06:02:01.235Z,8.70
2017-11-25T06:04:30.993Z,19.57
2017-11-25T06:07:00.761Z,9.63
2017-11-25T06:09:29.736Z,17.60
2017-11-25T06:11:58.715Z,10.67
2017-11-25T06:14:28.142Z,14.80
2017-11-25T06:16:57.306Z,11.77
2017-11-25T06:19:26.335Z,12.97
2017-11-25T06:21:55.302Z,13.90
2017-11-25T06:24:24.757Z,18.63
2017-11-25T06:26:54.026Z,18.70
2017-11-25T06:29:23.357Z,11.60
2017-11-25T06:31:52.769Z,17.80
2017-11-25T06:34:21.726Z,17.30
2017-11-25T06:36:50.732Z,20.43
2017-11-25T06:39:20.027Z,16.00
2017-11-25T06:41:48.997Z,13.13
2017-11-25T06:44:18.259Z,12.13
2017-11-25T06:46:47.521Z,14.03
2017-11-25T06:49:18.948Z,13.77
2017-11-25T06:51:48.317Z,11.87
2017-11-25T06:54:17.371Z,9.43
2017-11-25T06:56:46.314Z,8.33
2017-11-25T06:59:15.280Z,15.20
2017-11-25T07:01:44.285Z,10.50
2017-11-25T07:04:13.739Z,11.30
2017-11-25T07:06:42.734Z,14.50
2017-11-25T07:09:31.860Z,24.63
2017-11-25T07:12:00.836Z,29.77
2017-11-25T07:14:30.537Z,32.13
2017-11-25T07:17:06.715Z,15.80
2017-11-25T07:19:35.695Z,27.70
2017-11-25T07:22:05.454Z,16.03
2017-11-25T07:24:34.402Z,25.63
2017-11-25T07:27:03.710Z,23.73
2017-11-25T07:29:33.778Z,34.53
2017-11-25T07:32:03.654Z,40.47
2017-11-25T07:34:33.814Z,29.23
2017-11-25T07:37:02.869Z,40.33
2017-11-25T07:39:33.394Z,44.60
2017-11-25T07:42:02.482Z,24.40
2017-11-25T07:44:32.331Z,39.90
2017-11-25T07:47:01.426Z,37.53
2017-11-25T07:49:37.070Z,36.87
2017-11-25T07:52:24.425Z,14.60
2017-11-25T07:54:54.027Z,18.43
2017-11-25T07:57:24.690Z,26.50
2017-11-25T07:59:53.746Z,24.83
2017-11-25T08:02:23.186Z,17.20
2017-11-25T08:04:52.319Z,25.67
2017-11-25T08:07:22.615Z,32.50
2017-11-25T08:09:51.756Z,11.93
2017-11-25T08:12:21.273Z,18.40
2017-11-25T08:14:50.693Z,18.50
2017-11-25T08:17:19.784Z,15.33
2017-11-25T08:19:50.945Z,15.80
2017-11-25T08:22:20.042Z,17.93
2017-11-25T08:24:50.042Z,23.33
2017-11-25T08:27:19.995Z,16.43
2017-11-25T08:29:49.930Z,16.10
2017-11-25T08:32:28.774Z,17.73
2017-11-25T08:35:12.643Z,16.00
2017-11-25T08:37:42.720Z,16.30
2017-11-25T08:40:11.871Z,17.63
2017-11-25T08:42:42.484Z,14.03
2017-11-25T08:45:21.574Z,15.90
2017-11-25T08:47:51.010Z,13.93
2017-11-25T08:50:30.323Z,14.83
2017-11-25T08:53:05.114Z,13.10
2017-11-25T08:55:34.778Z,13.57
2017-11-25T08:58:04.667Z,13.87
2017-11-25T09:00:34.535Z,11.70
2017-11-25T09:03:04.443Z,13.83
2017-11-25T09:05:34.046Z,12.37
2017-11-25T09:08:03.398Z,15.57
2017-11-25T09:10:32.606Z,19.40
2017-11-25T09:13:02.487Z,15.97
2017-11-25T09:15:32.718Z,16.17
2017-11-25T09:18:03.392Z,14.43
2017-11-25T09:20:33.303Z,17.37
2017-11-25T09:23:03.197Z,12.60
2017-11-25T09:25:32.795Z,13.70
2017-11-25T09:28:01.919Z,14.70
2017-11-25T09:30:32.770Z,15.80
2017-11-25T09:33:01.851Z,18.33
2017-11-25T09:35:33.558Z,14.20
2017-11-25T09:38:02.963Z,16.77
2017-11-25T09:40:32.056Z,15.63
2017-11-25T09:43:01.894Z,15.63
2017-11-25T09:45:45.678Z,15.07
2017-11-25T09:48:17.716Z,18.20
2017-11-25T09:50:48.580Z,13.03
2017-11-25T09:53:17.634Z,10.87
2017-11-25T09:55:47.434Z,12.60
2017-11-25T09:58:17.314Z,12.70
2017-11-25T10:00:46.822Z,11.43
2017-11-25T10:03:15.945Z,12.83
2017-11-25T10:05:45.944Z,13.83
2017-11-25T10:08:16.397Z,12.23
2017-11-25T10:10:45.505Z,11.80
2017-11-25T10:13:16.274Z,11.93
2017-11-25T10:15:46.810Z,15.73
2017-11-25T10:18:15.943Z,10.90
2017-11-25T10:20:45.105Z,11.50
2017-11-25T10:23:14.276Z,10.40
2017-11-25T10:25:43.381Z,9.60
2017-11-25T10:28:12.394Z,9.97
2017-11-25T10:30:41.549Z,12.30
2017-11-25T10:33:10.804Z,9.00
2017-11-25T10:35:39.862Z,12.97
2017-11-25T10:38:09.005Z,9.00
2017-11-25T10:40:38.005Z,9.23
2017-11-25T10:43:07.003Z,10.17
2017-11-25T10:45:37.603Z,9.47
2017-11-25T10:48:06.606Z,9.43
2017-11-25T10:50:35.622Z,9.27
2017-11-25T10:53:04.622Z,8.83
2017-11-25T10:55:33.700Z,8.23
2017-11-25T10:58:02.889Z,10.23
2017-11-25T11:00:32.006Z,8.37
2017-11-25T11:03:01.821Z,7.80
2017-11-25T11:05:31.604Z,8.10
2017-11-25T11:08:00.624Z,6.33
2017-11-25T11:10:29.610Z,8.80
2017-11-25T11:12:58.579Z,6.30
2017-11-25T11:15:27.587Z,7.17
2017-11-25T11:17:56.970Z,6.67
2017-11-25T11:20:25.925Z,6.93
2017-11-25T11:22:54.920Z,6.40
2017-11-25T11:25:24.305Z,5.07
2017-11-25T11:27:54.036Z,8.97
2017-11-25T11:30:23.022Z,7.20
2017-11-25T11:32:52.029Z,9.00
2017-11-25T11:35:21.799Z,5.70
2017-11-25T11:37:51.567Z,5.20
2017-11-25T11:40:20.649Z,4.77
2017-11-25T11:42:50.092Z,4.60
2017-11-25T11:45:19.127Z,5.93
2017-11-25T11:47:48.517Z,14.20
2017-11-25T11:50:17.508Z,3.80
2017-11-25T11:52:47.248Z,3.43
2017-11-25T11:55:16.233Z,2.90
2017-11-25T11:57:45.254Z,4.33
2017-11-25T12:00:14.610Z,4.53
2017-11-25T12:02:43.605Z,8.20
2017-11-25T12:05:12.611Z,2.33
2017-11-25T12:07:41.616Z,4.40
2017-11-25T12:10:11.450Z,3.20
2017-11-25T12:12:41.432Z,2.30
2017-11-25T12:15:11.255Z,4.40
2017-11-25T12:17:40.309Z,6.43
2017-11-25T12:20:10.229Z,2.90
2017-11-25T12:22:39.383Z,2.13
2017-11-25T12:25:08.539Z,2.40
2017-11-25T12:27:37.951Z,2.47
2017-11-25T12:30:07.115Z,3.47
2017-11-25T12:32:36.995Z,7.33
2017-11-25T12:35:06.183Z,1.60
2017-11-25T12:37:35.240Z,4.75
2017-11-25T12:40:04.364Z,2.70
2017-11-25T12:42:33.920Z,2.60
2017-11-25T12:45:03.183Z,3.00
2017-11-25T12:47:33.219Z,5.43
2017-11-25T12:50:02.212Z,3.33
2017-11-25T12:52:32.060Z,3.73
2017-11-25T12:55:02.104Z,3.13
2017-11-25T12:57:31.299Z,4.40
2017-11-25T13:00:01.026Z,5.77
2017-11-25T13:02:30.211Z,2.87
2017-11-25T13:04:59.933Z,5.70
2017-11-25T13:07:29.052Z,3.70
2017-11-25T13:09:58.778Z,4.50
2017-11-25T13:12:28.555Z,3.27
2017-11-25T13:14:57.950Z,3.70
2017-11-25T13:17:26.962Z,3.73
2017-11-25T13:19:56.090Z,7.27
2017-11-25T13:22:25.817Z,8.03
2017-11-25T13:24:54.808Z,3.40
2017-11-25T13:27:23.793Z,4.57
2017-11-25T13:29:52.794Z,4.00
2017-11-25T13:32:22.207Z,14.37
2017-11-25T13:34:51.235Z,3.67
2017-11-25T13:37:20.199Z,3.53
2017-11-25T13:39:49.194Z,8.90
2017-11-25T13:42:18.209Z,7.70
2017-11-25T13:44:47.208Z,5.20
2017-11-25T13:47:16.179Z,4.30
2017-11-25T13:49:45.180Z,4.90
2017-11-25T13:52:14.246Z,5.63
2017-11-25T13:54:43.244Z,3.03
2017-11-25T13:57:12.657Z,4.00
2017-11-25T13:59:42.393Z,4.80
2017-11-25T14:02:11.502Z,5.40
2017-11-25T14:04:42.017Z,7.00
2017-11-25T14:07:11.409Z,9.77
2017-11-25T14:09:40.506Z,3.77
2017-11-25T14:12:11.063Z,6.83
2017-11-25T14:14:40.058Z,5.53
2017-11-25T14:17:09.537Z,4.97
2017-11-25T14:19:38.649Z,10.20
2017-11-25T14:22:07.620Z,5.40
2017-11-25T14:24:36.677Z,3.03
2017-11-25T14:27:06.486Z,4.13
2017-11-25T14:29:35.480Z,10.90
2017-11-25T14:32:04.536Z,7.33
2017-11-25T14:34:33.523Z,5.27
2017-11-25T14:37:02.477Z,10.10
2017-11-25T14:39:31.518Z,5.67
2017-11-25T14:42:00.483Z,4.57
2017-11-25T14:44:30.233Z,4.73
2017-11-25T14:46:59.973Z,5.30
2017-11-25T14:49:30.151Z,5.57
2017-11-25T14:51:59.526Z,6.00
2017-11-25T14:54:30.789Z,3.70
2017-11-25T14:57:00.547Z,6.00
2017-11-25T14:59:29.933Z,5.90
2017-11-25T15:01:58.985Z,5.87
2017-11-25T15:04:27.993Z,9.57
2017-11-25T15:06:56.997Z,8.97
2017-11-25T15:09:26.767Z,5.87
2017-11-25T15:11:55.744Z,7.73
2017-11-25T15:14:24.807Z,6.80
2017-11-25T15:16:53.775Z,5.73
2017-11-25T15:19:23.297Z,6.07
2017-11-25T15:21:52.343Z,4.83
2017-11-25T15:24:21.326Z,7.10
2017-11-25T15:26:50.750Z,11.30
2017-11-25T15:29:19.800Z,5.63
2017-11-25T15:31:48.769Z,7.17
2017-11-25T15:34:17.821Z,7.20
2017-11-25T15:36:47.529Z,6.30
2017-11-25T15:39:16.558Z,5.40
2017-11-25T15:41:46.298Z,6.27
2017-11-25T15:44:15.400Z,6.87
2017-11-25T15:46:44.402Z,6.70
2017-11-25T15:49:13.374Z,9.03
2017-11-25T15:51:42.826Z,8.07
2017-11-25T15:54:11.829Z,9.23
2017-11-25T15:56:41.593Z,12.63
2017-11-25T15:59:11.406Z,8.73
2017-11-25T16:01:40.370Z,8.03
2017-11-25T16:04:09.385Z,9.40
2017-11-25T16:06:38.395Z,8.33
2017-11-25T16:09:07.378Z,6.23
2017-11-25T16:11:36.380Z,7.60
2017-11-25T16:14:05.414Z,7.13
2017-11-25T16:16:35.222Z,15.27
2017-11-25T16:19:04.189Z,12.53
2017-11-25T16:21:33.242Z,13.00
2017-11-25T16:24:02.238Z,17.67
2017-11-25T16:26:31.309Z,9.10
2017-11-25T16:29:00.736Z,9.03
2017-11-25T16:31:30.224Z,12.23
2017-11-25T16:33:59.969Z,8.47
2017-11-25T16:36:28.982Z,12.30
2017-11-25T16:38:57.948Z,10.97
2017-11-25T16:41:26.943Z,8.23
2017-11-25T16:43:55.922Z,10.67
2017-11-25T16:46:24.889Z,7.67
2017-11-25T16:48:54.476Z,9.23
2017-11-25T16:51:23.444Z,10.00
2017-11-25T16:53:52.548Z,10.90
2017-11-25T16:56:21.515Z,9.53
2017-11-25T16:58:51.312Z,9.87
2017-11-25T17:01:20.279Z,11.50
2017-11-25T17:03:49.267Z,10.23
2017-11-25T17:06:18.233Z,10.30
2017-11-25T17:08:47.271Z,10.60
2017-11-25T17:11:16.276Z,8.77
2017-11-25T17:13:45.330Z,10.53
2017-11-25T17:16:14.849Z,9.77
2017-11-25T17:18:44.603Z,9.50
2017-11-25T17:21:14.395Z,9.83
2017-11-25T17:23:43.373Z,10.90
2017-11-25T17:26:12.369Z,12.00
2017-11-25T17:28:42.507Z,7.00
2017-11-25T17:31:11.903Z,7.43
2017-11-25T17:33:40.892Z,6.93
2017-11-25T17:36:09.971Z,6.50
2017-11-25T17:38:39.736Z,6.87
2017-11-25T17:41:08.715Z,6.17
2017-11-25T17:43:37.722Z,6.83
2017-11-25T17:46:08.274Z,7.30
2017-11-25T17:48:38.050Z,6.47
2017-11-25T17:51:07.070Z,8.23
2017-11-25T17:53:36.430Z,8.57
2017-11-25T17:56:05.437Z,6.60
2017-11-25T17:58:34.421Z,7.90
2017-11-25T18:01:03.411Z,8.83
2017-11-25T18:03:32.387Z,6.57
2017-11-25T18:06:01.413Z,7.93
2017-11-25T18:08:30.537Z,7.67
2017-11-25T18:11:00.301Z,9.47
2017-11-25T18:13:30.095Z,5.60
2017-11-25T18:15:59.420Z,5.07
2017-11-25T18:18:28.939Z,10.60
2017-11-25T18:20:57.942Z,5.90
2017-11-25T18:23:27.737Z,9.40
2017-11-25T18:25:56.954Z,5.53
2017-11-25T18:28:27.447Z,7.90
2017-11-25T18:30:56.457Z,7.63
2017-11-25T18:33:25.464Z,5.17
2017-11-25T18:35:56.170Z,6.40
2017-11-25T18:38:25.185Z,3.43
2017-11-25T18:40:54.897Z,4.60
2017-11-25T18:43:24.712Z,6.50
2017-11-25T18:45:54.478Z,4.70
2017-11-25T18:48:23.469Z,6.17
2017-11-25T18:50:52.466Z,4.87
2017-11-25T18:53:22.264Z,4.87
2017-11-25T18:55:51.744Z,3.30
2017-11-25T18:58:21.793Z,3.30
2017-11-25T19:00:50.911Z,3.43
2017-11-25T19:03:19.926Z,4.07
2017-11-25T19:05:48.946Z,4.40
2017-11-25T19:08:17.907Z,5.40
2017-11-25T19:10:47.275Z,5.47
2017-11-25T19:13:16.250Z,5.83
2017-11-25T19:15:45.642Z,5.90
2017-11-25T19:18:14.634Z,5.43
2017-11-25T19:20:43.634Z,3.50
2017-11-25T19:23:12.609Z,3.73
2017-11-25T19:25:42.021Z,4.63
2017-11-25T19:28:10.999Z,4.17
2017-11-25T19:30:40.757Z,6.23
2017-11-25T19:33:09.789Z,4.43
2017-11-25T19:35:39.515Z,5.40
2017-11-25T19:38:09.282Z,12.03
2017-11-25T19:40:38.411Z,5.83
2017-11-25T19:43:07.397Z,5.80
2017-11-25T19:45:36.917Z,4.47
2017-11-25T19:48:05.928Z,4.10
2017-11-25T19:50:35.228Z,5.30
2017-11-25T19:53:04.655Z,6.40
2017-11-25T19:55:33.957Z,5.33
2017-11-25T19:58:03.260Z,4.47
2017-11-25T20:00:32.282Z,4.77
2017-11-25T20:03:02.584Z,4.13
2017-11-25T20:05:31.569Z,3.27
2017-11-25T20:08:00.553Z,4.50
2017-11-25T20:10:29.580Z,3.40
2017-11-25T20:12:58.559Z,5.70
2017-11-25T20:15:27.578Z,4.20
2017-11-25T20:17:57.389Z,3.20
2017-11-25T20:20:26.566Z,4.67
2017-11-25T20:22:56.336Z,5.07
2017-11-25T20:25:25.385Z,6.37
2017-11-25T20:27:54.503Z,3.50
2017-11-25T20:30:23.896Z,7.73
2017-11-25T20:32:53.750Z,5.83
2017-11-25T20:35:23.520Z,5.60
2017-11-25T20:37:53.443Z,10.87
2017-11-25T20:40:22.948Z,6.23
2017-11-25T20:42:52.079Z,6.77
2017-11-25T20:45:21.164Z,7.30
2017-11-25T20:47:50.179Z,4.03
2017-11-25T20:50:19.550Z,5.33
2017-11-25T20:52:48.642Z,4.37
2017-11-25T20:55:17.686Z,4.13
2017-11-25T20:57:47.081Z,3.63
2017-11-25T21:00:16.118Z,5.50
2017-11-25T21:02:45.918Z,7.93
2017-11-25T21:05:15.697Z,3.40
2017-11-25T21:07:44.681Z,5.23
2017-11-25T21:10:14.106Z,9.23
2017-11-25T21:12:43.864Z,4.63
2017-11-25T21:15:12.891Z,6.73
2017-11-25T21:17:41.939Z,5.07
2017-11-25T21:20:10.977Z,5.77
2017-11-25T21:22:40.019Z,5.67
2017-11-25T21:25:09.047Z,5.57
2017-11-25T21:27:39.189Z,7.77
2017-11-25T21:30:08.207Z,6.33
2017-11-25T21:32:38.001Z,4.80
2017-11-25T21:35:06.980Z,5.77
2017-11-25T21:37:35.937Z,5.40
2017-11-25T21:40:06.117Z,5.50
2017-11-25T21:42:35.983Z,4.20
2017-11-25T21:45:05.083Z,6.33
2017-11-25T21:47:34.527Z,5.50
2017-11-25T21:50:04.300Z,5.10
2017-11-25T21:52:33.305Z,5.20
2017-11-25T21:55:03.812Z,4.77
2017-11-25T21:57:32.910Z,7.73
2017-11-25T22:00:01.927Z,5.63
2017-11-25T22:02:31.362Z,9.00
2017-11-25T22:05:01.133Z,7.03
2017-11-25T22:07:30.115Z,5.00
2017-11-25T22:09:59.126Z,6.40
2017-11-25T22:12:29.642Z,6.00
2017-11-25T22:14:59.043Z,6.60
2017-11-25T22:17:28.004Z,7.97
2017-11-25T22:19:57.007Z,10.70
2017-11-25T22:22:26.063Z,8.30
2017-11-25T22:24:55.846Z,5.63
2017-11-25T22:27:24.910Z,10.20
2017-11-25T22:29:54.268Z,5.47
2017-11-25T22:32:23.634Z,10.80
2017-11-25T22:34:53.095Z,7.80
2017-11-25T22:37:22.887Z,6.87
2017-11-25T22:39:52.636Z,7.20
2017-11-25T22:42:21.663Z,8.57
2017-11-25T22:44:51.029Z,5.47
2017-11-25T22:47:20.010Z,10.97
2017-11-25T22:49:49.415Z,7.43
2017-11-25T22:52:18.473Z,7.23
2017-11-25T22:54:47.429Z,5.20
2017-11-25T22:57:16.530Z,6.50
2017-11-25T22:59:45.524Z,6.80
2017-11-25T23:02:14.499Z,7.60
2017-11-25T23:04:43.498Z,6.67
2017-11-25T23:07:12.464Z,9.87
2017-11-25T23:09:41.441Z,7.07
2017-11-25T23:12:11.233Z,7.83
2017-11-25T23:14:41.009Z,5.07
2017-11-25T23:17:10.402Z,10.67
2017-11-25T23:19:39.443Z,7.83
2017-11-25T23:22:08.717Z,8.30
2017-11-25T23:24:38.089Z,9.00
2017-11-25T23:27:07.067Z,8.97
2017-11-25T23:29:36.050Z,8.63
2017-11-25T23:32:05.016Z,12.53
2017-11-25T23:34:34.806Z,9.20
2017-11-25T23:37:05.006Z,12.70
2017-11-25T23:39:34.082Z,9.47
2017-11-25T23:42:03.085Z,7.17
2017-11-25T23:44:32.457Z,12.60
2017-11-25T23:47:01.462Z,11.10
2017-11-25T23:49:30.447Z,7.90
2017-11-25T23:51:59.406Z,9.20
2017-11-25T23:54:29.185Z,9.73
2017-11-25T23:56:58.558Z,9.37
2017-11-25T23:59:28.330Z,9.60
